Time;durP1;ratioP1;P1;durP2;ratioP2;P2;SDS_P1;SDS_P2;PMS_P1;PMS_P2;Temp;Humidity;BMP_temperature;BMP_pressure;BME280_temperature;BME280_humidity;BME280_pressure;Samples;Min_cycle;Max_cycle;Signal;HPM_P1;HPM_P2
2023/03/22 00:01:55;;;;;;;36.88;18.27;;;9.90;99.90;;;;;;5053328;28;20025;-80
2023/03/22 00:04:21;;;;;;;38.22;18.38;;;9.90;99.90;;;;;;5051681;28;20041;-81
2023/03/22 00:06:47;;;;;;;44.15;20.00;;;10.00;99.90;;;;;;5053112;28;20033;-80
2023/03/22 00:09:12;;;;;;;48.35;23.98;;;9.90;99.90;;;;;;5050798;28;20025;-81
2023/03/22 00:11:38;;;;;;;54.15;26.02;;;9.90;99.90;;;;;;5052458;28;20025;-80
2023/03/22 00:14:05;;;;;;;53.75;26.33;;;10.00;99.90;;;;;;5052225;28;20103;-80
2023/03/22 00:16:30;;;;;;;52.03;23.98;;;10.00;99.90;;;;;;5052692;28;20033;-80
2023/03/22 00:18:56;;;;;;;47.28;21.88;;;10.10;99.90;;;;;;5050945;28;20083;-80
2023/03/22 00:21:22;;;;;;;42.33;20.92;;;10.10;99.90;;;;;;5052002;28;20048;-79
2023/03/22 00:23:47;;;;;;;43.33;21.08;;;10.10;99.90;;;;;;5055176;28;20475;-80
2023/03/22 00:26:13;;;;;;;35.75;18.67;;;10.20;99.90;;;;;;5055777;28;20055;-79
2023/03/22 00:28:39;;;;;;;32.70;18.92;;;10.20;99.90;;;;;;5054515;28;20017;-80
2023/03/22 00:31:06;;;;;;;38.85;18.17;;;10.20;99.90;;;;;;5056461;28;20021;-80
2023/03/22 00:33:32;;;;;;;39.75;19.73;;;10.20;99.90;;;;;;5056307;28;20035;-81
2023/03/22 00:36:03;;;;;;;41.50;19.83;;;10.20;99.90;;;;;;5056490;28;20040;-79
2023/03/22 00:38:38;;;;;;;36.55;20.50;;;10.20;99.90;;;;;;5054153;28;20025;-79
2023/03/22 00:41:23;;;;;;;40.97;19.90;;;10.20;99.90;;;;;;5054704;28;20029;-82
2023/03/22 00:43:50;;;;;;;39.08;20.52;;;10.20;99.90;;;;;;5054453;28;20044;-80
2023/03/22 00:46:18;;;;;;;44.35;22.70;;;10.20;99.90;;;;;;5056182;28;20074;-81
2023/03/22 00:48:44;;;;;;;46.17;22.60;;;10.20;99.90;;;;;;5055073;28;20033;-80
2023/03/22 00:51:11;;;;;;;45.65;21.50;;;10.20;99.90;;;;;;5055177;28;20383;-81
2023/03/22 00:53:37;;;;;;;43.83;21.67;;;10.20;99.90;;;;;;5054826;28;20079;-81
2023/03/22 00:56:04;;;;;;;37.80;19.15;;;10.20;99.90;;;;;;5056192;28;20021;-81
2023/03/22 00:58:30;;;;;;;39.90;19.90;;;10.30;99.90;;;;;;5056144;28;20032;-81
2023/03/22 01:00:56;;;;;;;41.42;18.63;;;10.30;99.90;;;;;;5056051;28;20096;-81
2023/03/22 01:03:23;;;;;;;40.38;18.63;;;10.30;99.90;;;;;;5056223;28;20032;-81
2023/03/22 01:05:54;;;;;;;42.53;18.27;;;10.40;99.90;;;;;;5055835;28;20021;-79
2023/03/22 01:08:21;;;;;;;37.90;18.05;;;10.40;99.90;;;;;;5055543;28;20052;-80
2023/03/22 01:10:48;;;;;;;39.08;18.02;;;10.40;99.90;;;;;;5055705;28;20095;-81
2023/03/22 01:13:14;;;;;;;31.20;14.90;;;10.40;99.90;;;;;;5055698;28;20033;-81
2023/03/22 01:15:40;;;;;;;33.33;16.13;;;10.50;99.90;;;;;;5053996;28;20028;-80
2023/03/22 01:18:07;;;;;;;30.98;14.65;;;10.50;99.90;;;;;;5055394;28;20066;-80
2023/03/22 01:20:34;;;;;;;35.42;16.00;;;10.50;99.90;;;;;;5054008;28;20479;-81
2023/03/22 01:23:00;;;;;;;33.30;15.73;;;10.50;99.90;;;;;;5053974;28;20107;-81
2023/03/22 01:25:25;;;;;;;31.58;14.52;;;10.50;99.90;;;;;;5055327;28;20463;-80
2023/03/22 01:27:51;;;;;;;29.15;15.02;;;10.50;99.90;;;;;;5053865;28;20067;-80
2023/03/22 01:30:17;;;;;;;26.75;13.88;;;10.50;99.90;;;;;;5053757;28;20387;-81
2023/03/22 01:32:42;;;;;;;25.90;14.20;;;10.50;99.90;;;;;;5053431;28;20033;-81
2023/03/22 01:35:08;;;;;;;31.58;15.43;;;10.50;99.90;;;;;;5054668;28;20112;-80
2023/03/22 01:37:34;;;;;;;25.48;13.63;;;10.50;99.90;;;;;;5053922;28;20025;-81
2023/03/22 01:40:00;;;;;;;29.38;14.32;;;10.50;99.90;;;;;;5053527;28;20021;-82
2023/03/22 01:42:27;;;;;;;40.90;17.08;;;10.50;99.90;;;;;;5054604;28;20104;-79
2023/03/22 01:45:30;;;;;;;31.60;14.20;;;10.50;99.90;;;;;;5053654;28;20025;-80
2023/03/22 01:48:01;;;;;;;26.75;14.15;;;10.50;99.90;;;;;;5016162;28;20527;-81
2023/03/22 01:50:30;;;;;;;32.60;16.03;;;10.50;99.90;;;;;;5015565;28;20029;-81
2023/03/22 01:52:56;;;;;;;24.38;13.25;;;10.50;99.90;;;;;;5015814;28;20083;-80
2023/03/22 01:55:24;;;;;;;26.73;14.63;;;10.50;99.90;;;;;;5015392;28;20044;-80
2023/03/22 01:57:53;;;;;;;27.65;14.07;;;10.50;99.90;;;;;;5032167;28;20495;-80
2023/03/22 02:00:19;;;;;;;25.65;13.73;;;10.50;99.90;;;;;;5015723;28;20168;-81
2023/03/22 02:02:49;;;;;;;26.63;13.50;;;10.50;99.90;;;;;;5015502;28;20404;-80
2023/03/22 02:05:16;;;;;;;30.45;14.38;;;10.50;99.90;;;;;;5015213;28;20036;-80
2023/03/22 02:07:43;;;;;;;29.27;15.15;;;10.50;99.90;;;;;;5031972;28;20030;-78
2023/03/22 02:10:18;;;;;;;33.05;15.38;;;10.50;99.90;;;;;;5031771;28;20045;-78
2023/03/22 02:13:07;;;;;;;27.85;15.10;;;10.50;99.90;;;;;;5015616;28;20391;-80
2023/03/22 02:16:16;;;;;;;59.70;23.23;;;10.50;99.90;;;;;;5015433;28;20086;-80
2023/03/22 02:19:28;;;;;;;124.45;39.60;;;10.50;99.90;;;;;;5032277;28;20079;-80
2023/03/22 02:22:15;;;;;;;134.95;41.53;;;10.50;99.90;;;;;;5055840;28;20045;-79
2023/03/22 02:24:47;;;;;;;131.43;42.85;;;10.50;99.90;;;;;;5033150;28;20037;-79
2023/03/22 02:27:43;;;;;;;89.07;38.42;;;10.50;99.90;;;;;;5034766;28;20022;-80
2023/03/22 02:30:31;;;;;;;61.95;29.60;;;10.50;99.90;;;;;;5034412;28;20386;-79
2023/03/22 02:33:00;;;;;;;47.15;21.58;;;10.50;99.90;;;;;;5051851;28;20026;-80
2023/03/22 02:35:38;;;;;;;33.55;16.63;;;10.50;99.90;;;;;;5054521;28;20025;-80
2023/03/22 02:38:13;;;;;;;39.63;17.13;;;10.50;99.90;;;;;;5053951;28;20376;-79
2023/03/22 02:40:42;;;;;;;36.58;17.80;;;10.50;99.90;;;;;;5054348;28;20525;-79
2023/03/22 02:43:37;;;;;;;46.92;17.45;;;10.50;99.90;;;;;;5054427;28;20490;-78
2023/03/22 02:46:05;;;;;;;39.22;18.23;;;10.50;99.90;;;;;;5052633;28;20029;-80
2023/03/22 02:48:44;;;;;;;32.33;16.00;;;10.50;99.90;;;;;;5053212;28;20035;-80
2023/03/22 02:51:20;;;;;;;28.63;15.68;;;10.60;99.90;;;;;;5052537;28;20498;-82
2023/03/22 02:54:21;;;;;;;37.35;18.90;;;10.50;99.90;;;;;;5053594;28;20021;-80
2023/03/22 02:56:53;;;;;;;39.13;18.80;;;10.50;99.90;;;;;;5046518;28;20056;-81
2023/03/22 02:59:22;;;;;;;43.95;21.35;;;10.50;99.90;;;;;;5053567;28;20031;-78
2023/03/22 03:01:55;;;;;;;37.90;19.13;;;10.50;99.90;;;;;;5051777;28;20044;-79
2023/03/22 03:04:29;;;;;;;35.35;17.60;;;10.50;99.90;;;;;;5052294;28;20209;-80
2023/03/22 03:07:00;;;;;;;33.70;16.90;;;10.50;99.90;;;;;;5051723;28;20124;-81
2023/03/22 03:09:26;;;;;;;29.33;15.77;;;10.50;99.90;;;;;;5053502;28;20060;-79
2023/03/22 03:11:53;;;;;;;25.38;14.95;;;10.60;99.90;;;;;;5052118;28;20029;-81
2023/03/22 03:14:27;;;;;;;25.92;13.75;;;10.50;99.90;;;;;;5053148;28;20033;-79
2023/03/22 03:17:31;;;;;;;25.20;13.95;;;10.50;99.90;;;;;;5053625;28;20033;-82
2023/03/22 03:20:11;;;;;;;26.52;13.82;;;10.50;99.90;;;;;;5052163;28;20052;-79
2023/03/22 03:23:13;;;;;;;32.30;15.38;;;10.40;99.90;;;;;;5053658;28;20071;-80
2023/03/22 03:25:46;;;;;;;31.98;16.63;;;10.30;99.90;;;;;;5039894;28;20044;-80
2023/03/22 03:28:39;;;;;;;36.50;17.88;;;10.30;99.90;;;;;;5053720;28;20083;-80
2023/03/22 03:31:13;;;;;;;47.22;17.45;;;10.30;99.90;;;;;;5053493;28;20047;-80
2023/03/22 03:33:50;;;;;;;32.13;15.82;;;10.30;99.90;;;;;;5053680;28;20171;-79
2023/03/22 03:36:17;;;;;;;40.50;17.75;;;10.20;99.90;;;;;;5053436;28;20021;-79
2023/03/22 03:38:46;;;;;;;31.08;15.98;;;10.20;99.90;;;;;;5052564;28;20032;-80
2023/03/22 03:41:19;;;;;;;34.70;16.38;;;10.10;99.90;;;;;;5051922;28;20029;-79
2023/03/22 03:43:45;;;;;;;35.70;16.70;;;10.10;99.90;;;;;;5053633;28;20028;-79
2023/03/22 03:46:11;;;;;;;35.65;16.60;;;10.10;99.90;;;;;;5053750;28;20044;-79
2023/03/22 03:48:39;;;;;;;32.78;16.38;;;10.10;99.90;;;;;;5050705;28;20033;-80
2023/03/22 03:51:05;;;;;;;40.88;17.75;;;10.10;99.90;;;;;;5052567;28;20059;-80
2023/03/22 03:53:31;;;;;;;48.55;19.00;;;10.10;99.90;;;;;;5051496;28;20033;-79
2023/03/22 03:55:57;;;;;;;36.67;17.95;;;10.10;99.90;;;;;;5054203;28;20067;-79
2023/03/22 03:58:23;;;;;;;34.60;17.35;;;10.10;99.90;;;;;;5057089;28;20104;-80
2023/03/22 04:00:49;;;;;;;41.38;18.85;;;10.10;99.90;;;;;;5055737;28;20028;-79
2023/03/22 04:03:15;;;;;;;40.65;18.88;;;10.10;99.90;;;;;;5055649;28;20033;-81
2023/03/22 04:05:41;;;;;;;36.05;18.08;;;10.10;99.90;;;;;;5055971;28;20577;-79
2023/03/22 04:08:07;;;;;;;37.85;17.88;;;10.10;99.90;;;;;;5055603;28;20025;-79
2023/03/22 04:10:33;;;;;;;39.88;19.02;;;10.00;99.90;;;;;;5055234;28;20071;-80
2023/03/22 04:12:59;;;;;;;49.95;22.83;;;10.00;99.90;;;;;;5055445;28;20048;-80
2023/03/22 04:15:24;;;;;;;43.88;20.45;;;10.10;99.90;;;;;;5055279;28;20037;-80
2023/03/22 04:17:52;;;;;;;39.63;17.40;;;10.10;99.90;;;;;;5054890;28;20415;-80
2023/03/22 04:20:18;;;;;;;43.13;19.90;;;10.10;99.90;;;;;;5054690;28;20352;-80
2023/03/22 04:22:45;;;;;;;41.30;19.45;;;10.10;99.90;;;;;;5056290;28;20048;-79
2023/03/22 04:25:13;;;;;;;33.13;16.27;;;10.00;99.90;;;;;;5056615;28;20044;-81
2023/03/22 04:27:40;;;;;;;41.70;18.77;;;10.00;99.90;;;;;;5056645;28;20024;-80
2023/03/22 04:30:11;;;;;;;38.05;19.08;;;10.00;99.90;;;;;;5054397;28;20051;-79
2023/03/22 04:32:37;;;;;;;49.45;21.88;;;10.00;99.90;;;;;;5056172;28;20082;-80
2023/03/22 04:35:05;;;;;;;39.22;18.77;;;10.00;99.90;;;;;;5056645;28;20483;-81
2023/03/22 04:37:31;;;;;;;49.60;22.25;;;9.90;99.90;;;;;;5054596;28;20104;-80
2023/03/22 04:39:57;;;;;;;65.60;25.60;;;9.90;99.90;;;;;;5055959;28;20360;-80
2023/03/22 04:42:24;;;;;;;61.75;24.88;;;9.90;99.90;;;;;;5054883;28;20036;-79
2023/03/22 04:44:49;;;;;;;95.40;35.70;;;9.90;99.90;;;;;;5054461;28;20087;-78
2023/03/22 04:47:16;;;;;;;73.10;30.02;;;9.90;99.90;;;;;;5054826;28;20620;-79
2023/03/22 04:49:43;;;;;;;50.45;22.63;;;9.80;99.90;;;;;;5056025;28;20024;-79
2023/03/22 04:52:09;;;;;;;30.50;17.17;;;9.80;99.90;;;;;;5054102;28;20029;-80
2023/03/22 04:54:35;;;;;;;49.80;22.25;;;9.80;99.90;;;;;;5055800;28;20021;-81
2023/03/22 04:57:01;;;;;;;50.55;24.60;;;9.80;99.90;;;;;;5055691;28;20025;-80
2023/03/22 04:59:26;;;;;;;44.60;21.05;;;9.70;99.90;;;;;;5054206;28;20033;-79
2023/03/22 05:01:52;;;;;;;35.13;16.98;;;9.70;99.90;;;;;;5056203;28;20029;-79
2023/03/22 05:04:19;;;;;;;31.58;15.95;;;9.60;99.90;;;;;;5055735;28;20108;-78
2023/03/22 05:06:45;;;;;;;33.92;16.13;;;9.60;99.90;;;;;;5054444;28;20098;-78
2023/03/22 05:09:11;;;;;;;30.63;15.48;;;9.60;99.90;;;;;;5054356;28;20418;-80
2023/03/22 05:11:39;;;;;;;28.90;13.38;;;9.60;99.90;;;;;;5053805;28;20055;-79
2023/03/22 05:14:05;;;;;;;30.27;15.57;;;9.60;99.90;;;;;;5054107;28;20040;-80
2023/03/22 05:16:32;;;;;;;27.33;14.07;;;9.50;99.90;;;;;;5054066;28;20029;-80
2023/03/22 05:18:57;;;;;;;25.05;14.32;;;9.50;99.90;;;;;;5055050;28;20021;-80
2023/03/22 05:21:27;;;;;;;28.83;14.85;;;9.60;99.90;;;;;;5053759;28;20045;-80
2023/03/22 05:23:55;;;;;;;32.10;14.15;;;9.60;99.90;;;;;;5050837;28;20110;-79
2023/03/22 05:26:23;;;;;;;32.47;17.25;;;9.60;99.90;;;;;;5054879;28;20033;-81
2023/03/22 05:28:49;;;;;;;39.95;17.85;;;9.70;99.90;;;;;;5049814;28;20032;-77
2023/03/22 05:31:16;;;;;;;34.80;17.42;;;9.70;99.90;;;;;;5055045;28;20025;-80
2023/03/22 05:33:42;;;;;;;31.65;16.17;;;9.80;99.90;;;;;;5053612;28;20029;-78
2023/03/22 05:36:10;;;;;;;34.67;16.45;;;9.80;99.90;;;;;;5054004;28;20033;-78
2023/03/22 05:38:36;;;;;;;33.75;16.50;;;9.80;99.90;;;;;;5053730;28;20037;-78
2023/03/22 05:41:02;;;;;;;33.78;18.08;;;9.90;99.90;;;;;;5054875;28;20037;-80
2023/03/22 05:43:27;;;;;;;33.47;15.18;;;9.90;99.90;;;;;;5053436;28;20029;-80
2023/03/22 05:45:53;;;;;;;34.55;16.80;;;10.00;99.90;;;;;;5053763;28;20029;-81
2023/03/22 05:48:19;;;;;;;26.63;14.00;;;10.00;99.90;;;;;;5054440;28;20383;-79
2023/03/22 05:50:45;;;;;;;39.80;16.10;;;10.10;99.90;;;;;;5054669;28;20025;-80
2023/03/22 05:53:11;;;;;;;37.58;19.92;;;10.10;99.90;;;;;;5053420;28;20529;-80
2023/03/22 05:55:37;;;;;;;45.90;23.38;;;10.20;99.90;;;;;;5053111;28;20083;-81
2023/03/22 05:58:03;;;;;;;61.20;27.23;;;10.20;99.90;;;;;;5054672;28;20025;-78
2023/03/22 06:00:32;;;;;;;51.00;26.08;;;10.30;99.90;;;;;;5054852;28;20048;-80
2023/03/22 06:03:02;;;;;;;42.63;21.52;;;10.40;99.90;;;;;;5053411;28;20068;-81
2023/03/22 06:05:30;;;;;;;37.58;19.02;;;10.50;99.90;;;;;;5054343;28;20021;-80
2023/03/22 06:07:56;;;;;;;32.90;16.08;;;10.70;99.90;;;;;;5052607;28;20487;-81
2023/03/22 06:10:23;;;;;;;36.47;18.38;;;10.80;99.90;;;;;;5053403;28;20392;-78
2023/03/22 06:12:49;;;;;;;33.33;14.18;;;10.90;99.90;;;;;;5054566;28;20027;-80
2023/03/22 06:15:15;;;;;;;23.15;13.00;;;11.00;99.90;;;;;;5053866;28;20032;-79
2023/03/22 06:17:41;;;;;;;19.88;10.75;;;11.10;99.90;;;;;;5053898;28;20028;-79
2023/03/22 06:20:09;;;;;;;34.85;16.77;;;11.20;99.90;;;;;;5054140;28;20025;-80
2023/03/22 06:22:35;;;;;;;32.35;15.98;;;11.20;99.90;;;;;;5052250;28;20107;-81
2023/03/22 06:25:01;;;;;;;28.42;14.02;;;11.40;99.90;;;;;;5052883;28;20467;-78
2023/03/22 06:27:27;;;;;;;36.90;17.77;;;11.50;99.90;;;;;;5054131;28;20104;-82
2023/03/22 06:29:53;;;;;;;31.83;16.40;;;11.60;99.90;;;;;;5053877;28;20390;-79
2023/03/22 06:32:22;;;;;;;30.55;16.20;;;11.70;99.90;;;;;;5053784;28;20028;-79
2023/03/22 06:34:49;;;;;;;34.90;16.65;;;11.90;99.90;;;;;;5052930;28;20036;-78
2023/03/22 06:37:15;;;;;;;41.10;17.60;;;12.00;99.90;;;;;;5052476;28;20536;-80
2023/03/22 06:39:41;;;;;;;41.58;17.40;;;12.10;99.90;;;;;;5052972;28;20025;-80
2023/03/22 06:42:07;;;;;;;25.90;13.35;;;12.20;99.90;;;;;;5052727;28;20029;-79
2023/03/22 06:44:32;;;;;;;29.98;14.73;;;12.20;99.90;;;;;;5052190;28;20037;-80
2023/03/22 06:46:58;;;;;;;32.97;18.63;;;12.30;99.90;;;;;;5052648;28;20117;-81
2023/03/22 06:49:25;;;;;;;27.42;14.63;;;12.50;99.90;;;;;;5051912;28;20063;-79
2023/03/22 06:51:51;;;;;;;38.20;16.30;;;12.60;99.90;;;;;;5053760;28;20096;-80
2023/03/22 06:54:16;;;;;;;25.33;13.55;;;12.70;99.90;;;;;;5052340;28;20440;-79
2023/03/22 06:56:42;;;;;;;26.20;13.48;;;12.70;99.90;;;;;;5051891;28;20032;-80
2023/03/22 06:59:08;;;;;;;26.10;14.07;;;12.80;99.90;;;;;;5052437;28;20025;-80
2023/03/22 07:01:34;;;;;;;30.75;14.32;;;13.00;99.90;;;;;;5052335;28;20029;-80
2023/03/22 07:04:00;;;;;;;22.27;12.00;;;13.10;99.90;;;;;;5053398;28;20035;-80
2023/03/22 07:06:25;;;;;;;31.27;13.60;;;13.10;99.90;;;;;;5051752;28;20036;-80
2023/03/22 07:08:51;;;;;;;29.33;15.88;;;13.10;99.90;;;;;;5053555;28;20021;-79
2023/03/22 07:11:17;;;;;;;43.47;18.40;;;13.20;99.90;;;;;;5053633;28;20021;-80
2023/03/22 07:13:44;;;;;;;33.75;16.80;;;13.30;99.90;;;;;;5053013;28;20033;-80
2023/03/22 07:16:10;;;;;;;26.17;14.52;;;13.40;99.90;;;;;;5051806;28;20091;-80
2023/03/22 07:18:36;;;;;;;20.30;11.68;;;13.60;99.90;;;;;;5051768;28;20017;-80
2023/03/22 07:21:02;;;;;;;28.45;13.88;;;13.50;99.90;;;;;;5051350;28;20033;-80
2023/03/22 07:23:28;;;;;;;30.85;14.13;;;13.70;99.90;;;;;;5052211;28;20029;-81
2023/03/22 07:25:54;;;;;;;22.23;11.43;;;13.60;99.90;;;;;;5051306;28;20076;-80
2023/03/22 07:28:21;;;;;;;21.40;12.38;;;13.80;99.90;;;;;;5051758;28;20033;-79
2023/03/22 07:30:47;;;;;;;25.55;12.68;;;14.00;99.90;;;;;;5051340;28;20029;-81
2023/03/22 07:33:13;;;;;;;21.42;11.52;;;14.20;99.80;;;;;;5051377;28;20116;-80
2023/03/22 07:35:39;;;;;;;25.15;13.43;;;14.30;99.30;;;;;;5053193;28;20060;-79
2023/03/22 07:38:05;;;;;;;23.90;11.75;;;14.50;98.90;;;;;;5053953;28;20021;-84
2023/03/22 07:40:34;;;;;;;18.58;10.15;;;14.60;96.80;;;;;;5051963;28;20388;-89
2023/03/22 07:43:00;;;;;;;20.67;10.68;;;14.60;96.20;;;;;;5052014;28;20171;-80
2023/03/22 07:45:26;;;;;;;17.88;10.45;;;14.70;95.30;;;;;;5053377;28;20056;-80
2023/03/22 07:47:51;;;;;;;20.48;11.32;;;15.00;95.80;;;;;;5053889;28;20029;-80
2023/03/22 07:50:18;;;;;;;18.67;9.05;;;15.10;94.10;;;;;;5052257;28;20029;-80
2023/03/22 07:52:44;;;;;;;16.13;9.45;;;15.40;93.80;;;;;;5051807;28;20033;-81
2023/03/22 07:55:12;;;;;;;21.02;9.60;;;15.50;92.90;;;;;;5060244;28;20406;-82
2023/03/22 07:57:38;;;;;;;19.90;9.55;;;15.90;91.20;;;;;;5052169;28;20099;-82
2023/03/22 08:00:06;;;;;;;21.98;9.32;;;16.10;86.90;;;;;;5051859;28;20060;-82
2023/03/22 08:02:32;;;;;;;14.95;8.23;;;16.20;87.80;;;;;;5048363;28;20030;-82
2023/03/22 08:04:57;;;;;;;18.15;8.02;;;16.40;83.60;;;;;;5032043;28;20037;-81
2023/03/22 08:07:26;;;;;;;20.92;9.40;;;16.60;81.10;;;;;;5046498;28;20079;-80
2023/03/22 08:09:52;;;;;;;17.90;8.15;;;16.80;80.80;;;;;;5050275;28;20520;-81
2023/03/22 08:12:18;;;;;;;14.43;6.88;;;16.90;77.90;;;;;;5050934;28;20108;-81
2023/03/22 08:14:50;;;;;;;17.90;7.90;;;17.00;74.50;;;;;;5052265;28;20033;-81
2023/03/22 08:17:17;;;;;;;15.48;7.47;;;17.20;75.90;;;;;;5054589;28;20025;-80
2023/03/22 08:19:44;;;;;;;13.85;8.07;;;17.40;73.60;;;;;;5053126;28;20041;-79
2023/03/22 08:22:10;;;;;;;13.77;6.88;;;17.10;71.10;;;;;;5051134;28;20053;-80
2023/03/22 08:24:36;;;;;;;13.00;7.65;;;17.20;70.80;;;;;;5053216;28;20029;-81
2023/03/22 08:27:03;;;;;;;17.40;9.38;;;17.10;69.90;;;;;;5050820;28;20453;-79
2023/03/22 08:29:28;;;;;;;15.10;8.10;;;17.20;69.80;;;;;;5052890;28;20036;-80
2023/03/22 08:31:54;;;;;;;16.20;8.25;;;17.40;69.20;;;;;;5051892;28;20025;-81
2023/03/22 08:34:21;;;;;;;16.05;8.27;;;17.40;68.50;;;;;;5051728;28;20025;-80
2023/03/22 08:36:46;;;;;;;17.42;8.52;;;17.60;69.50;;;;;;5052074;28;20029;-80
2023/03/22 08:39:12;;;;;;;15.55;8.38;;;18.20;67.70;;;;;;5052964;28;20383;-81
2023/03/22 08:41:39;;;;;;;16.00;8.27;;;18.20;63.60;;;;;;5051220;28;20025;-79
2023/03/22 08:44:05;;;;;;;19.70;8.95;;;18.30;64.30;;;;;;5055252;28;20418;-81
2023/03/22 08:46:31;;;;;;;16.98;7.78;;;18.60;64.50;;;;;;5056449;28;20029;-80
2023/03/22 08:49:04;;;;;;;12.05;6.82;;;18.70;62.40;;;;;;5055042;28;20128;-84
2023/03/22 08:51:30;;;;;;;14.40;7.47;;;18.80;63.00;;;;;;5054983;28;20025;-80
2023/03/22 08:53:59;;;;;;;10.27;6.50;;;18.80;62.40;;;;;;5054638;28;20083;-82
2023/03/22 08:56:26;;;;;;;13.77;7.47;;;18.80;62.00;;;;;;5054890;28;20025;-80
2023/03/22 08:58:52;;;;;;;14.50;7.15;;;18.70;64.70;;;;;;5056164;28;20037;-81
2023/03/22 09:01:19;;;;;;;15.38;6.68;;;18.60;62.30;;;;;;5056433;28;20068;-81
2023/03/22 09:03:45;;;;;;;13.30;7.03;;;18.80;60.90;;;;;;5054656;28;20037;-81
2023/03/22 09:06:12;;;;;;;14.43;8.35;;;19.00;61.70;;;;;;5056009;28;20066;-83
2023/03/22 09:08:38;;;;;;;16.05;7.72;;;19.20;60.00;;;;;;5055008;28;20025;-81
2023/03/22 09:11:06;;;;;;;15.93;7.93;;;19.40;61.80;;;;;;5055631;28;20025;-81
2023/03/22 09:13:33;;;;;;;15.07;8.52;;;19.50;58.20;;;;;;5056331;28;20033;-80
2023/03/22 09:15:59;;;;;;;15.98;7.60;;;19.60;58.80;;;;;;5056188;28;20112;-79
2023/03/22 09:18:25;;;;;;;19.25;8.60;;;19.50;56.80;;;;;;5054521;28;20111;-80
2023/03/22 09:20:51;;;;;;;15.65;8.18;;;19.50;57.30;;;;;;5056401;28;20075;-80
2023/03/22 09:23:17;;;;;;;17.77;8.20;;;19.90;56.10;;;;;;5053931;28;20049;-81
2023/03/22 09:25:44;;;;;;;16.80;7.10;;;19.90;55.20;;;;;;5055748;28;20491;-80
2023/03/22 09:28:10;;;;;;;17.60;8.02;;;20.10;56.40;;;;;;5055925;28;20107;-79
2023/03/22 09:30:36;;;;;;;16.35;8.70;;;20.10;56.90;;;;;;5055032;28;20674;-81
2023/03/22 09:33:02;;;;;;;20.98;7.57;;;20.00;55.00;;;;;;5053890;28;20028;-81
2023/03/22 09:35:29;;;;;;;14.63;7.75;;;20.40;53.70;;;;;;5054015;28;20119;-80
2023/03/22 09:37:55;;;;;;;11.18;6.75;;;20.50;55.00;;;;;;5053262;28;20029;-80
2023/03/22 09:40:27;;;;;;;10.65;5.82;;;20.60;54.70;;;;;;5055256;28;20420;-80
2023/03/22 09:42:56;;;;;;;12.02;5.10;;;20.70;51.50;;;;;;5055020;28;20033;-80
2023/03/22 09:45:38;;;;;;;11.73;6.90;;;21.10;49.90;;;;;;5054828;28;20086;-81
2023/03/22 09:48:32;;;;;;;11.65;6.10;;;21.20;48.90;;;;;;5051781;28;20482;-82
2023/03/22 09:51:01;;;;;;;10.25;5.75;;;20.90;48.70;;;;;;5052759;28;20033;-78
2023/03/22 09:53:28;;;;;;;9.00;5.57;;;21.10;49.00;;;;;;5054344;28;20028;-78
2023/03/22 09:56:14;;;;;;;12.18;5.70;;;21.00;48.50;;;;;;5052939;28;20487;-81
2023/03/22 09:58:46;;;;;;;11.32;6.68;;;21.30;49.20;;;;;;5052369;28;20099;-81
2023/03/22 10:01:36;;;;;;;12.10;5.28;;;21.80;47.80;;;;;;5053018;28;20509;-79
2023/03/22 10:04:16;;;;;;;8.48;4.95;;;21.90;46.50;;;;;;5052766;28;20037;-81
2023/03/22 10:06:48;;;;;;;10.70;5.40;;;21.90;45.70;;;;;;5052508;28;20075;-78
2023/03/22 10:09:26;;;;;;;8.40;5.13;;;;;;;;;;5052320;28;20032;-79
2023/03/22 10:12:09;;;;;;;10.10;5.38;;;;;;;;;;5052577;28;20421;-78
2023/03/22 10:14:39;;;;;;;10.00;5.60;;;;;;;;;;5052821;28;20044;-79
2023/03/22 10:17:14;;;;;;;9.43;4.53;;;;;;;;;;5065980;28;20107;-81
2023/03/22 10:19:59;;;;;;;12.90;5.75;;;;;;;;;;5055359;28;20028;-79
2023/03/22 10:22:34;;;;;;;10.73;5.20;;;;;;;;;;5074705;28;20128;-79
2023/03/22 10:25:01;;;;;;;10.15;5.15;;;;;;;;;;5053484;28;20047;-81
2023/03/22 10:27:29;;;;;;;14.85;4.93;;;;;;;;;;5054633;28;20075;-79
2023/03/22 10:30:13;;;;;;;7.00;4.28;;;;;;;;;;5053902;28;20348;-80
2023/03/22 10:33:09;;;;;;;8.90;4.88;;;;;;;;;;5060624;28;20021;-80
2023/03/22 10:35:35;;;;;;;6.20;4.53;;;;;;;;;;5059734;28;20029;-79
2023/03/22 10:38:05;;;;;;;10.82;4.70;;;;;;;;;;5073283;28;20459;-82
2023/03/22 10:40:33;;;;;;;9.38;5.47;;;;;;;;;;5072547;28;20056;-79
2023/03/22 10:43:02;;;;;;;8.43;5.20;;;;;;;;;;5052344;28;20436;-79
2023/03/22 10:45:29;;;;;;;7.88;4.68;;;;;;;;;;5058422;28;20123;-79
2023/03/22 10:48:14;;;;;;;28.55;12.48;;;22.80;37.90;;;;;;5053087;28;20486;-86
2023/03/22 10:50:43;;;;;;;10.00;5.68;;;;;;;;;;5053308;28;20028;-82
2023/03/22 10:53:22;;;;;;;8.00;4.30;;;;;;;;;;5053021;28;20379;-78
2023/03/22 10:55:48;;;;;;;10.95;5.40;;;23.20;39.20;;;;;;5053008;28;20459;-81
2023/03/22 10:58:22;;;;;;;10.50;5.78;;;23.50;39.90;;;;;;5053002;28;20364;-79
2023/03/22 11:00:51;;;;;;;8.20;4.20;;;23.50;39.20;;;;;;5062910;28;20024;-79
2023/03/22 11:03:31;;;;;;;14.95;7.28;;;;;;;;;;5055606;28;20033;-88
2023/03/22 11:06:00;;;;;;;7.50;4.60;;;24.00;38.70;;;;;;5059823;28;20095;-80
2023/03/22 11:08:26;;;;;;;5.65;3.38;;;24.30;37.60;;;;;;5072643;28;20029;-82
2023/03/22 11:10:53;;;;;;;5.85;3.90;;;24.50;37.40;;;;;;5069815;28;20032;-79
2023/03/22 11:13:23;;;;;;;8.38;4.03;;;;;;;;;;5054083;28;20025;-80
2023/03/22 11:15:54;;;;;;;8.07;3.78;;;;;;;;;;5052411;28;20020;-81
2023/03/22 11:18:20;;;;;;;4.40;2.90;;;;;;;;;;5051937;28;20032;-79
2023/03/22 11:21:06;;;;;;;5.20;3.53;;;;;;;;;;5053635;28;20025;-80
2023/03/22 11:23:33;;;;;;;6.57;3.80;;;;;;;;;;5051675;28;20041;-80
2023/03/22 11:26:06;;;;;;;8.32;3.35;;;;;;;;;;5052202;28;20040;-80
2023/03/22 11:28:36;;;;;;;5.15;2.70;;;;;;;;;;5051684;28;20071;-79
2023/03/22 11:31:05;;;;;;;7.35;3.95;;;;;;;;;;5053075;28;20025;-85
2023/03/22 11:33:31;;;;;;;35.50;20.15;;;;;;;;;;5052136;28;20029;-84
2023/03/22 11:35:58;;;;;;;6.18;3.90;;;;;;;;;;5051785;28;20024;-80
2023/03/22 11:38:30;;;;;;;6.78;4.25;;;;;;;;;;5044545;28;20017;-79
2023/03/22 11:41:01;;;;;;;7.40;3.60;;;;;;;;;;5051886;28;20024;-80
2023/03/22 11:43:32;;;;;;;5.90;4.03;;;;;;;;;;5053012;28;20143;-79
2023/03/22 11:45:59;;;;;;;10.70;3.90;;;;;;;;;;5046781;28;20036;-80
2023/03/22 11:48:27;;;;;;;11.93;5.35;;;;;;;;;;5055003;28;20262;-80
2023/03/22 11:50:54;;;;;;;5.28;3.13;;;;;;;;;;5052833;28;20514;-79
2023/03/22 11:53:25;;;;;;;6.55;4.10;;;;;;;;;;5051737;28;20028;-79
2023/03/22 11:55:52;;;;;;;4.88;3.30;;;;;;;;;;5052896;28;20059;-80
2023/03/22 11:58:26;;;;;;;4.63;2.75;;;;;;;;;;5051927;28;20021;-79
2023/03/22 12:00:57;;;;;;;5.50;3.22;;;24.40;30.20;;;;;;5052551;28;20029;-79
2023/03/22 12:03:44;;;;;;;5.05;3.30;;;23.90;31.40;;;;;;5053498;28;20063;-80
2023/03/22 12:06:23;;;;;;;6.78;2.88;;;23.30;33.80;;;;;;5051984;28;20040;-80
2023/03/22 12:08:57;;;;;;;6.38;2.90;;;22.40;34.80;;;;;;5052422;28;20083;-81
2023/03/22 12:11:25;;;;;;;5.60;3.20;;;22.00;36.10;;;;;;5052043;28;20508;-79
2023/03/22 12:14:01;;;;;;;6.85;3.75;;;21.70;36.70;;;;;;5052206;28;20033;-79
2023/03/22 12:16:39;;;;;;;5.72;3.53;;;21.60;36.70;;;;;;5053259;28;20032;-80
2023/03/22 12:19:23;;;;;;;6.55;3.70;;;21.20;35.10;;;;;;5056971;28;20021;-80
2023/03/22 12:21:50;;;;;;;6.07;3.25;;;21.30;35.50;;;;;;5057140;28;20045;-79
2023/03/22 12:24:27;;;;;;;6.57;3.45;;;21.20;35.80;;;;;;5057372;28;20538;-79
2023/03/22 12:27:20;;;;;;;5.50;2.58;;;21.50;39.20;;;;;;5055696;28;20123;-78
2023/03/22 12:29:53;;;;;;;3.92;2.20;;;22.00;37.20;;;;;;5057073;28;20021;-80
2023/03/22 12:32:26;;;;;;;4.88;2.70;;;22.60;36.00;;;;;;5055666;28;20025;-79
2023/03/22 12:34:52;;;;;;;7.57;4.03;;;21.90;34.20;;;;;;5055781;28;20028;-80
2023/03/22 12:37:29;;;;;;;17.17;3.00;;;21.20;37.50;;;;;;5056937;28;20027;-80
2023/03/22 12:40:12;;;;;;;8.57;3.30;;;21.10;36.90;;;;;;5056631;28;20467;-79
2023/03/22 12:43:05;;;;;;;5.03;3.28;;;20.60;37.10;;;;;;5055682;28;20071;-79
2023/03/22 12:45:37;;;;;;;7.40;3.28;;;20.30;36.70;;;;;;5055797;28;20029;-81
2023/03/22 12:48:39;;;;;;;7.63;3.28;;;20.30;37.70;;;;;;5055183;28;20524;-82
2023/03/22 12:51:07;;;;;;;7.73;3.60;;;19.90;39.40;;;;;;5053852;28;20051;-81
2023/03/22 12:53:42;;;;;;;5.88;2.90;;;19.70;40.90;;;;;;5056057;28;20121;-80
2023/03/22 12:56:24;;;;;;;11.68;5.63;;;19.70;41.10;;;;;;5055456;28;20036;-81
2023/03/22 12:58:55;;;;;;;8.52;3.80;;;19.40;41.40;;;;;;5055535;28;20086;-79
2023/03/22 13:01:24;;;;;;;5.38;3.30;;;19.50;41.30;;;;;;5054919;28;20033;-79